Huvudsida
METAR-TAF:

METAR-TAF

Flygplatser :

Kärrdals flygplats

Kärrdal, Estland

latitud: 58-59N, longitud: 022-49E, höjd: 5 m

Aktuellt väderrapport

Denna rapport gjordes för 1 timme och 5 minuter sedan, klockan 15:50 UTC
Vind 17 kt från nordväst
Temperatur 2°C
Fuktighet 80%
Tryck 1007 hPa
Sikt 10 km eller mer
Få moln på en höjd av 1700 ft

METAR: EEKA 251550Z 32017KT 9999 FEW017 02/M01 Q1007

Tid: 18:55 (16:55 UTC)

Väderprognos

Denna rapport gjordes för 3 timmar och 55 minuter sedan, klockan 13:00 UTC
Prognos gäller från 25 kl. 14 UTC till 25 kl. 20 UTC
Vind 15 kt från nordväst
Sikt 10 km eller mer
Spridda moln på en höjd av 2500 ft
Sannolikhet 30% :
Temporärt
från 25 kl. 14 UTC till 25 kl. 15 UTC
Sikt: 4000 m
Brutna moln på en höjd av 800 ft
Spridda moln på en höjd av 1500 ft, Cumulonimbus.
regnskurar, snö

TAF: EEKA 251300Z 2514/2520 32015KT 9999 SCT025 PROB30 TEMPO 2514/2515 4000 SHRASN BKN008 SCT015CB

Aktuella väderrapporter och prognoser från 4000 flygplatser (METAR- och TAF-rapporter).

De tillgängliga stationerna syns som gula och röda prickar på kartan.

För musen över prickarna för att se namnen på stationerna.

Klicka sedan för att få väderrapporter och prognoser.

För att ändra kartan: Klicka på de gröna knapparna med ett svart kors på för att zooma in; den gröna knappen med ett streck på för att zooma ut; eller på de gröna pilarna för angränsande kartor.


METAR-TAF: